Time;durP1;ratioP1;P1;durP2;ratioP2;P2;SDS_P1;SDS_P2;PMS_P1;PMS_P2;Temp;Humidity;BMP_temperature;BMP_pressure;BME280_temperature;BME280_humidity;BME280_pressure;Samples;Min_cycle;Max_cycle;Signal;HPM_P1;HPM_P2
2023/02/01 00:00:11;;;;;;;296.53;140.17;;;;;;;4.89;100.00;98645.38;5029047;28;20490;-60
2023/02/01 00:02:40;;;;;;;206.83;145.03;;;;;;;4.85;100.00;98657.22;5028532;28;20053;-58
2023/02/01 00:05:10;;;;;;;3.60;2.10;;;;;;;4.92;100.00;98622.56;5030772;28;20774;-58
2023/02/01 00:07:36;;;;;;;8.67;7.80;;;;;;;4.85;100.00;98653.84;5031460;28;20052;-57
2023/02/01 00:10:04;;;;;;;4.43;2.97;;;;;;;4.75;100.00;98641.97;5030129;28;20455;-59
2023/02/01 00:12:31;;;;;;;127.77;101.93;;;;;;;4.82;100.00;98654.69;5028082;28;20041;-59
2023/02/01 00:14:56;;;;;;;11.43;7.37;;;;;;;4.87;100.00;98653.03;5028328;28;20037;-59
2023/02/01 00:17:22;;;;;;;301.40;121.33;;;;;;;4.91;100.00;98653.88;5028864;28;20044;-58
2023/02/01 00:19:48;;;;;;;52.80;37.70;;;;;;;4.75;100.00;98631.81;5029216;28;20045;-59
2023/02/01 00:22:13;;;;;;;80.60;48.00;;;;;;;4.71;100.00;98638.53;5028826;28;20370;-59
2023/02/01 00:24:39;;;;;;;418.07;160.33;;;;;;;4.66;100.00;98624.16;5030441;28;20067;-59
2023/02/01 00:27:05;;;;;;;364.07;130.93;;;;;;;4.82;100.00;98614.06;5030987;28;20377;-60
2023/02/01 00:29:30;;;;;;;313.80;159.87;;;;;;;4.81;100.00;98626.75;5028086;28;20048;-61
2023/02/01 00:31:56;;;;;;;2.90;2.00;;;;;;;4.84;100.00;98608.97;5027182;28;20055;-59
2023/02/01 00:34:22;;;;;;;1.50;1.37;;;;;;;4.68;100.00;98585.22;5027926;28;20051;-59
2023/02/01 00:36:47;;;;;;;25.60;17.70;;;;;;;4.83;100.00;98640.31;5030410;28;20170;-57
2023/02/01 00:39:14;;;;;;;1.53;1.43;;;;;;;4.70;100.00;98603.00;5030243;28;20040;-60
2023/02/01 00:41:40;;;;;;;2.30;1.60;;;;;;;4.66;100.00;98583.53;5032550;28;20048;-59
2023/02/01 00:44:06;;;;;;;332.20;235.20;;;;;;;4.91;100.00;98618.31;5032000;28;20087;-58
2023/02/01 00:46:31;;;;;;;2.40;1.80;;;;;;;4.89;100.00;98635.22;5028444;28;20088;-59
2023/02/01 00:48:57;;;;;;;1.80;1.63;;;;;;;4.80;100.00;98617.41;5029196;28;20119;-61
2023/02/01 00:51:26;;;;;;;1.60;1.50;;;;;;;4.84;100.00;98637.75;5030247;28;20136;-60
2023/02/01 00:53:52;;;;;;;2.77;2.23;;;;;;;4.76;100.00;98649.56;5045405;28;20037;-59
2023/02/01 00:56:18;;;;;;;6.97;5.70;;;;;;;4.88;100.00;98658.97;5028707;28;20037;-60
2023/02/01 00:58:44;;;;;;;81.13;73.80;;;;;;;4.83;100.00;98651.31;5026511;28;20061;-60
2023/02/01 01:01:18;;;;;;;330.37;169.67;;;;;;;4.81;100.00;98657.22;5036291;28;20037;-60
2023/02/01 01:03:49;;;;;;;1.53;1.43;;;;;;;4.77;100.00;98650.44;5029965;28;20542;-61
2023/02/01 01:06:17;;;;;;;170.67;101.80;;;;;;;4.90;100.00;98637.78;5028958;28;20051;-59
2023/02/01 01:08:43;;;;;;;1.50;1.40;;;;;;;5.06;100.00;98675.09;5040712;28;20160;-58
2023/02/01 01:11:15;;;;;;;421.57;176.97;;;;;;;5.05;100.00;98652.22;5027215;28;20091;-59
2023/02/01 01:13:41;;;;;;;438.80;185.03;;;;;;;5.12;100.00;98663.25;5030489;28;20040;-57
2023/02/01 01:16:08;;;;;;;67.37;53.13;;;;;;;4.91;100.00;98619.16;5030211;28;20551;-60
2023/02/01 01:18:35;;;;;;;220.47;102.57;;;;;;;4.97;100.00;98628.47;5024991;28;20381;-58
2023/02/01 01:21:03;;;;;;;3.63;1.50;;;;;;;5.10;100.00;98652.22;5027141;28;20528;-60
2023/02/01 01:23:29;;;;;;;1.63;1.53;;;;;;;5.09;100.00;98659.03;5026339;28;20068;-60
2023/02/01 01:25:54;;;;;;;281.40;102.35;;;;;;;5.15;100.00;98669.19;5028291;28;20187;-56
2023/02/01 01:28:20;;;;;;;427.60;171.30;;;;;;;5.17;100.00;98662.44;5031420;28;20404;-61
2023/02/01 01:30:46;;;;;;;435.27;178.27;;;;;;;5.12;100.00;98643.78;5030573;28;20053;-60
2023/02/01 01:33:15;;;;;;;439.50;192.80;;;;;;;5.15;100.00;98664.13;5022520;28;20333;-59
2023/02/01 01:35:43;;;;;;;449.00;202.10;;;;;;;5.00;100.00;98664.94;5024809;28;20306;-59
2023/02/01 01:38:11;;;;;;;440.97;191.13;;;;;;;4.94;100.00;98625.94;5024740;28;20132;-59
2023/02/01 01:40:37;;;;;;;438.87;185.27;;;;;;;4.95;100.00;98614.94;5028183;28;20304;-59
2023/02/01 01:43:09;;;;;;;444.23;188.77;;;;;;;5.13;100.00;98664.97;5028130;28;20299;-59
2023/02/01 01:45:35;;;;;;;433.57;180.63;;;;;;;5.09;100.00;98664.13;5026176;28;20311;-56
2023/02/01 01:48:26;;;;;;;455.70;244.87;;;;;;;4.97;100.00;98664.91;5028471;28;20284;-58
2023/02/01 01:50:58;;;;;;;465.63;300.90;;;;;;;5.05;100.00;98682.69;5035386;28;20537;-59
2023/02/01 01:53:28;;;;;;;455.90;256.15;;;;;;;5.09;100.00;98709.00;5027007;28;20408;-57
2023/02/01 01:55:55;;;;;;;455.67;247.32;;;;;;;4.94;100.00;98648.81;5026778;28;20689;-58
2023/02/01 01:58:25;;;;;;;448.65;225.30;;;;;;;5.03;100.00;98664.09;5032263;28;20052;-59
2023/02/01 02:00:51;;;;;;;443.55;214.38;;;;;;;4.74;100.00;98643.66;5021705;28;20044;-58
2023/02/01 02:03:25;;;;;;;440.52;202.57;;;;;;;4.90;100.00;98692.81;5039160;28;20150;-60
2023/02/01 02:05:53;;;;;;;442.92;207.80;;;;;;;4.95;100.00;98760.59;5030134;28;20094;-57
2023/02/01 02:08:20;;;;;;;336.25;205.13;;;;;;;4.84;100.00;98647.91;5029152;28;20053;-57
2023/02/01 02:11:00;;;;;;;440.98;231.63;;;;;;;4.95;100.00;98678.44;5030600;28;20539;-59
2023/02/01 02:13:32;;;;;;;420.98;171.52;;;;;;;4.88;100.00;98653.88;5033368;28;20045;-60
2023/02/01 02:16:01;;;;;;;;;;;;;;;4.95;100.00;98673.38;5043358;28;20037;-57
2023/02/01 02:19:04;;;;;;;401.47;302.57;;;;;;;4.93;100.00;98736.84;5028357;28;20414;-60
2023/02/01 02:22:11;;;;;;;344.33;117.03;;;;;;;4.85;100.00;98680.09;5030161;28;20381;-59
2023/02/01 02:25:14;;;;;;;3.70;1.40;;;;;;;4.90;100.00;98683.50;4988074;28;20090;-58
2023/02/01 02:27:40;;;;;;;0.80;0.80;;;;;;;4.79;100.00;98679.22;4979939;28;20038;-60
2023/02/01 02:30:25;;;;;;;1.00;0.90;;;;;;;4.59;100.00;98664.72;4985343;28;20092;-57
2023/02/01 02:33:02;;;;;;;1.40;1.30;;;;;;;4.76;100.00;98686.81;4986435;28;20543;-58
2023/02/01 02:35:38;;;;;;;1.97;1.43;;;;;;;4.74;100.00;98704.59;4987962;28;20470;-57
2023/02/01 02:38:29;;;;;;;0.93;0.90;;;;;;;4.73;100.00;98709.66;4990371;28;20050;-60
2023/02/01 02:41:05;;;;;;;170.63;111.23;;;;;;;4.67;100.00;98666.47;4976923;28;20196;-59
2023/02/01 02:54:45;;;;;;;2.83;2.63;;;;;;;4.27;100.00;98689.09;4989083;28;20045;-58
2023/02/01 02:55:35;;;;;;;289.43;122.90;;;;;;;4.32;100.00;98722.97;4973669;28;20058;-63
2023/02/01 03:06:22;;;;;;;;;;;;;;;4.33;100.00;98698.44;5038971;28;20097;-58
2023/02/01 03:08:48;;;;;;;88.07;38.47;;;;;;;4.27;100.00;98717.00;5027543;28;19964;-56
2023/02/01 03:11:14;;;;;;;;;;;;;;;4.41;100.00;98724.72;5028048;28;20045;-56
2023/02/01 03:13:40;;;;;;;;;;;;;;;4.49;100.00;98708.69;5038580;28;19953;-55
2023/02/01 03:16:28;;;;;;;;;;;;;;;4.52;100.00;98706.16;5032896;28;20016;-59
2023/02/01 03:18:57;;;;;;;;;;;;;;;4.38;100.00;98712.84;5064682;28;19928;-57
2023/02/01 03:21:29;;;;;;;;;;;;;;;4.47;100.00;98707.81;5028838;28;19978;-59
2023/02/01 03:23:58;;;;;;;;;;;;;;;4.56;100.00;98728.19;5028381;28;19967;-59
2023/02/01 03:26:25;;;;;;;;;;;;;;;4.62;100.00;98681.69;5030210;28;19927;-59
2023/02/01 03:29:02;;;;;;;;;;;;;;;4.66;100.00;98698.63;5038645;28;19920;-58
2023/02/01 03:31:28;;;;;;;;;;;;;;;4.63;100.00;98711.28;5031476;28;20010;-58
2023/02/01 03:33:54;;;;;;;;;;;;;;;4.69;100.00;98677.47;5029299;28;20066;-60
2023/02/01 03:36:23;;;;;;;;;;;;;;;4.60;100.00;98686.75;5039461;28;19920;-58
2023/02/01 03:38:58;;;;;;;;;;;;;;;4.64;100.00;98699.44;5063234;28;19925;-56
2023/02/01 03:41:32;;;;;;;;;;;;;;;4.59;100.00;98697.75;5028040;28;19960;-58
2023/02/01 03:44:10;;;;;;;;;;;;;;;4.69;100.00;98675.78;5030281;28;19920;-58
2023/02/01 03:46:38;;;;;;;;;;;;;;;4.66;100.00;98669.84;5026680;28;19920;-58
2023/02/01 03:49:10;;;;;;;;;;;;;;;4.60;100.00;98676.59;5033994;28;19933;-59
2023/02/01 03:51:39;;;;;;;;;;;;;;;4.65;100.00;98673.22;5030730;28;19935;-57
2023/02/01 03:54:06;;;;;;;;;;;;;;;4.63;100.00;98674.91;5030646;28;19920;-59
2023/02/01 03:56:34;;;;;;;;;;;;;;;4.59;100.00;98671.50;5030796;28;19947;-58
2023/02/01 03:59:00;;;;;;;;;;;;;;;4.66;100.00;98698.63;5035986;28;19921;-58
2023/02/01 04:01:30;;;;;;;;;;;;;;;4.70;100.00;98686.81;5060200;28;20478;-60
2023/02/01 04:03:56;;;;;;;;;;;;;;;4.77;100.00;98680.91;5059691;28;19928;-59
2023/02/01 04:06:22;;;;;;;;;;;;;;;4.82;100.00;98648.75;5027307;28;19921;-60
2023/02/01 04:08:47;;;;;;;;;;;;;;;4.88;100.00;98651.34;5029054;28;19987;-68
2023/02/01 04:11:13;;;;;;;;;;;;;;;4.89;100.00;98664.03;5027008;28;19925;-60
2023/02/01 04:13:38;;;;;;;;;;;;;;;4.95;100.00;98686.06;5026673;28;19960;-58
2023/02/01 04:16:04;;;;;;;;;;;;;;;4.95;100.00;98661.53;5031249;28;19925;-60
2023/02/01 04:18:29;;;;;;;;;;;;;;;4.94;100.00;98675.06;5029662;28;19925;-59
2023/02/01 04:20:54;;;;;;;;;;;;;;;4.99;100.00;98652.22;5025183;28;19983;-60
2023/02/01 04:23:31;;;;;;;;;;;;;;;5.09;100.00;98659.03;5020863;28;19936;-60
2023/02/01 04:26:01;;;;;;;;;;;;;;;5.14;100.00;98687.81;5030659;28;19921;-59
2023/02/01 04:28:26;;;;;;;;;;;;;;;5.12;100.00;98661.56;5029072;28;20529;-58
2023/02/01 04:30:52;;;;;;;;;;;;;;;5.20;100.00;98647.19;5028928;28;19924;-54
2023/02/01 04:33:17;;;;;;;;;;;;;;;5.21;100.00;98646.34;5028399;28;19966;-55
2023/02/01 04:35:43;;;;;;;;;;;;;;;5.23;100.00;98649.72;5031925;28;19979;-55
2023/02/01 04:38:08;;;;;;;;;;;;;;;5.28;100.00;98644.66;5032859;28;19921;-54
2023/02/01 04:40:34;;;;;;;;;;;;;;;5.22;100.00;98642.13;5032494;28;19952;-54
2023/02/01 04:43:03;;;;;;;;;;;;;;;5.21;100.00;98661.59;5039271;28;20015;-51
2023/02/01 04:45:28;;;;;;;;;;;;;;;5.16;100.00;98662.44;5029509;28;19978;-59
2023/02/01 04:47:54;;;;;;;;;;;;;;;5.29;100.00;98649.75;5028895;28;19929;-52
2023/02/01 04:50:20;;;;;;;;;;;;;;;5.22;100.00;98650.56;5028961;28;19925;-57
2023/02/01 04:52:45;;;;;;;;;;;;;;;5.18;100.00;98651.41;5030267;28;20379;-57
2023/02/01 04:55:13;;;;;;;;;;;;;;;5.23;100.00;98667.53;5029371;28;20011;-54
2023/02/01 04:57:40;;;;;;;;;;;;;;;5.17;100.00;98659.06;5014646;28;20397;-55
2023/02/01 05:00:06;;;;;;;;;;;;;;;5.25;100.00;98648.06;5031068;28;20010;-58
2023/02/01 05:02:32;;;;;;;;;;;;;;;5.20;100.00;98654.81;5032113;28;20030;-58
2023/02/01 05:04:57;;;;;;;;;;;;;;;5.11;100.00;98672.56;5030468;28;19925;-55
2023/02/01 05:07:23;;;;;;;;;;;;;;;5.00;100.00;98659.00;5028533;28;19920;-56
2023/02/01 05:09:48;;;;;;;;;;;;;;;4.92;100.00;98656.41;5030019;28;19931;-57
2023/02/01 05:14:58;;;;;;;;;;;;;;;4.98;100.00;98658.97;5029876;28;20312;-58
2023/02/01 05:17:23;;;;;;;;;;;;;;;5.05;100.00;98663.22;5028825;28;19956;-55
2023/02/01 05:19:49;;;;;;;;;;;;;;;4.94;100.00;98681.81;5060528;28;20290;-58
2023/02/01 05:22:14;;;;;;;;;;;;;;;4.98;100.00;98658.97;5030289;28;19983;-55
2023/02/01 05:24:40;;;;;;;;;;;;;;;5.00;100.00;98669.16;5031272;28;19924;-54
2023/02/01 05:27:05;;;;;;;;;;;;;;;5.01;100.00;98653.06;5030982;28;19959;-54
2023/02/01 05:29:31;;;;;;;;;;;;;;;4.98;100.00;98650.50;5030537;28;19924;-57
2023/02/01 05:31:56;;;;;;;;;;;;;;;4.96;100.00;98652.22;5031667;28;20363;-55
2023/02/01 05:34:21;;;;;;;;;;;;;;;4.97;100.00;98664.03;5033231;28;19931;-56
2023/02/01 05:36:47;;;;;;;;;;;;;;;4.94;100.00;98669.97;5027856;28;19940;-56
2023/02/01 05:39:12;;;;;;;;;;;;;;;4.87;100.00;98670.81;5060284;28;19959;-58
2023/02/01 05:41:38;;;;;;;;;;;;;;;4.85;100.00;98682.63;5031970;28;20148;-62
2023/02/01 05:44:03;;;;;;;;;;;;;;;4.82;100.00;98714.78;5030414;28;20302;-55
2023/02/01 05:46:29;;;;;;;;;;;;;;;4.89;100.00;98680.94;5031562;28;19925;-54
2023/02/01 05:48:54;;;;;;;;;;;;;;;4.84;100.00;98718.16;5034035;28;19931;-54
2023/02/01 05:51:20;;;;;;;;;;;;;;;4.84;100.00;98682.63;5030393;28;19927;-58
2023/02/01 05:53:45;;;;;;;;;;;;;;;4.77;100.00;98676.66;5034778;28;19925;-57
2023/02/01 05:56:11;;;;;;;;;;;;;;;4.83;100.00;98683.47;5035031;28;19921;-58
2023/02/01 05:58:36;;;;;;;;;;;;;;;4.82;100.00;98672.47;5032889;28;20470;-57
2023/02/01 06:01:03;;;;;;;;;;;;;;;4.83;100.00;98681.78;5032362;28;19935;-58
2023/02/01 06:03:29;;;;;;;;;;;;;;;4.92;100.00;98681.81;5033303;28;20342;-57
2023/02/01 06:05:54;;;;;;;;;;;;;;;4.95;100.00;98681.84;5032528;28;20223;-59
2023/02/01 06:08:19;;;;;;;;;;;;;;;4.95;100.00;98696.22;5050024;28;19931;-57
2023/02/01 06:10:45;;;;;;;;;;;;;;;5.10;100.00;98667.47;5032144;28;20487;-55
2023/02/01 06:13:10;;;;;;;;;;;;;;;5.09;100.00;98675.97;5033990;28;19927;-59
2023/02/01 06:15:37;;;;;;;;;;;;;;;5.09;100.00;98658.19;5031129;28;20300;-54
2023/02/01 06:18:03;;;;;;;;;;;;;;;5.11;100.00;98672.56;5032042;28;19972;-52
2023/02/01 06:20:28;;;;;;;;;;;;;;;5.09;100.00;98670.88;5030767;28;19920;-54
2023/02/01 06:22:54;;;;;;;;;;;;;;;5.11;100.00;98664.94;5035137;28;19932;-55
2023/02/01 06:25:21;;;;;;;;;;;;;;;5.16;100.00;98650.56;5032977;28;19932;-55
2023/02/01 06:27:46;;;;;;;;;;;;;;;5.16;100.00;98665.81;5033271;28;20035;-53
2023/02/01 06:30:13;;;;;;;;;;;;;;;5.17;100.00;98662.44;5032173;28;19932;-56
2023/02/01 06:32:40;;;;;;;;;;;;;;;5.26;100.00;98664.16;5032735;28;20372;-54
2023/02/01 06:35:11;;;;;;;;;;;;;;;5.34;100.00;98663.34;5031476;28;20436;-55
2023/02/01 06:37:37;;;;;;;;;;;;;;;5.41;100.00;98682.81;5032426;28;19920;-56
2023/02/01 06:40:03;;;;;;;;;;;;;;;5.44;100.00;98659.94;5028649;28;20021;-57
2023/02/01 06:42:28;;;;;;;;;;;;;;;5.47;100.00;98657.41;5030045;28;20011;-58
2023/02/01 06:44:55;;;;;;;;;;;;;;;5.48;100.00;98658.25;5032676;28;19917;-55
2023/02/01 06:47:21;;;;;;;;;;;;;;;5.56;100.00;98661.66;5032505;28;19925;-56
2023/02/01 06:49:46;;;;;;;;;;;;;;;5.60;100.00;98673.53;5033070;28;19921;-57
2023/02/01 06:52:12;;;;;;;;;;;;;;;5.71;100.00;98697.28;5032956;28;19925;-56
2023/02/01 06:54:37;;;;;;;;;;;;;;;5.76;100.00;98692.22;5034605;28;20256;-57
2023/02/01 06:57:03;;;;;;;;;;;;;;;5.70;100.00;98680.31;5044561;28;19956;-56
2023/02/01 06:59:28;;;;;;;;;;;;;;;5.66;100.00;98698.97;5027703;28;20354;-55
2023/02/01 07:01:54;;;;;;;;;;;;;;;5.59;100.00;98720.16;5031256;28;19925;-55
2023/02/01 07:04:20;;;;;;;;;;;;;;;5.51;100.00;98719.31;5035749;28;20322;-57
2023/02/01 07:06:45;;;;;;;;;;;;;;;5.48;100.00;98717.59;5037498;28;19958;-55
2023/02/01 07:09:12;;;;;;;;;;;;;;;5.51;100.00;98714.22;5032630;28;19921;-56
2023/02/01 07:11:40;;;;;;;;;;;;;;;5.57;100.00;98729.47;5034646;28;19924;-53
2023/02/01 07:14:06;;;;;;;;;;;;;;;5.62;100.00;98722.69;5030344;28;19920;-54
2023/02/01 07:16:31;;;;;;;;;;;;;;;5.69;100.00;98685.41;5030680;28;19925;-55
2023/02/01 07:18:57;;;;;;;;;;;;;;;5.76;100.00;98682.88;5028756;28;19925;-55
2023/02/01 07:21:23;;;;;;;;;;;;;;;5.80;100.00;98661.69;5030392;28;19931;-55
2023/02/01 07:23:48;;;;;;;;;;;;;;;5.88;100.00;98651.53;5032712;28;20011;-55
2023/02/01 07:26:14;;;;;;;;;;;;;;;5.95;100.00;98648.13;5029434;28;19974;-56
2023/02/01 07:28:40;;;;;;;;;;;;;;;6.07;100.00;98660.84;5028084;28;19955;-56
2023/02/01 07:31:07;;;;;;;;;;;;;;;6.07;100.00;98673.56;5029516;28;19960;-55
2023/02/01 07:33:33;;;;;;;;;;;;;;;6.09;100.00;98679.53;5027731;28;20043;-58
2023/02/01 07:36:00;;;;;;;;;;;;;;;6.12;100.00;98674.44;5029281;28;19925;-59
2023/02/01 07:38:26;;;;;;;;;;;;;;;6.16;100.00;98686.31;5031304;28;20307;-60
2023/02/01 07:40:56;;;;;;;;;;;;;;;6.24;100.00;98668.47;5033155;28;20003;-56
2023/02/01 07:43:22;;;;;;;;;;;;;;;6.35;100.00;98672.72;5030104;28;19920;-55
2023/02/01 07:45:52;;;;;;;;;;;;;;;6.20;100.00;98661.69;5031300;28;19925;-55
2023/02/01 07:48:18;;;;;;;;;;;;;;;6.28;100.00;98681.19;5030619;28;19921;-60
2023/02/01 07:50:43;;;;;;;;;;;;;;;6.26;100.00;98671.88;5049468;28;20285;-56
2023/02/01 07:53:08;;;;;;;;;;;;;;;6.19;100.00;98677.84;5030187;28;20011;-55
2023/02/01 07:55:37;;;;;;;;;;;;;;;6.25;100.00;98660.00;5031283;28;20515;-55
2023/02/01 07:58:02;;;;;;;;;;;;;;;6.32;100.00;98646.41;5030099;28;19978;-56
2023/02/01 08:03:12;;;;;;;;;;;;;;;6.26;100.00;98659.16;5031430;28;19925;-55
2023/02/01 08:05:37;;;;;;;;;;;;;;;6.28;100.00;98668.47;5029064;28;19923;-57
2023/02/01 08:08:02;;;;;;;;;;;;;;;6.28;100.00;98660.81;5030700;28;19968;-57
2023/02/01 08:10:28;;;;;;;;;;;;;;;6.35;100.00;98652.34;5030994;28;20245;-55
2023/02/01 08:12:57;;;;;;;;;;;;;;;6.31;100.00;98650.66;5029919;28;19936;-54
2023/02/01 08:15:23;;;;;;;;;;;;;;;6.35;100.00;98665.09;5026627;28;19927;-57
2023/02/01 08:17:51;;;;;;;;;;;;;;;6.39;100.00;98610.75;5029832;28;19924;-57
2023/02/01 08:20:21;;;;;;;;;;;;;;;6.46;100.00;98647.22;5026815;28;20268;-53
2023/02/01 08:22:47;;;;;;;;;;;;;;;6.62;100.00;98623.41;5027131;28;19921;-57
2023/02/01 08:25:12;;;;;;;;;;;;;;;6.60;100.00;98629.34;5030227;28;19971;-55
2023/02/01 08:27:38;;;;;;;;;;;;;;;6.60;100.00;98625.13;5029432;28;19925;-58
2023/02/01 08:30:04;;;;;;;;;;;;;;;6.58;100.00;98628.50;5031320;28;19932;-57
2023/02/01 08:32:30;;;;;;;;;;;;;;;6.71;100.00;98619.97;5037204;28;19957;-58
2023/02/01 08:34:56;;;;;;;;;;;;;;;6.72;100.00;98616.56;5031043;28;20011;-58
2023/02/01 08:37:22;;;;;;;;;;;;;;;6.82;100.00;98608.06;5031023;28;19920;-58
2023/02/01 08:39:50;;;;;;;;;;;;;;;6.85;100.00;98613.13;5033573;28;20381;-58
2023/02/01 08:43:00;;;;;;;;;;;;;;;6.87;100.00;98627.53;5031646;28;19925;-57
2023/02/01 08:45:04;;;;;;;;;;;;;;;7.11;100.00;98602.81;5029024;28;19992;-57
2023/02/01 08:47:32;;;;;;;;;;;;;;;7.09;100.00;98600.25;5025499;28;20012;-58
2023/02/01 08:49:58;;;;;;;;;;;;;;;7.15;100.00;98599.38;5028079;28;19990;-59
2023/02/01 08:52:23;;;;;;;;;;;;;;;7.16;100.00;98596.81;5027227;28;19932;-56
2023/02/01 08:54:49;;;;;;;;;;;;;;;7.16;100.00;98604.47;5027107;28;19936;-55
2023/02/01 08:57:14;;;;;;;;;;;;;;;7.23;100.00;98602.72;5030958;28;19928;-60
2023/02/01 08:59:40;;;;;;;;;;;;;;;7.32;100.00;98602.66;5030768;28;20520;-58
2023/02/01 09:02:08;;;;;;;;;;;;;;;7.37;100.00;98618.78;5028674;28;19920;-59
2023/02/01 09:04:33;;;;;;;;;;;;;;;7.12;100.00;98612.16;5029239;28;19928;-58
2023/02/01 09:06:58;;;;;;;;;;;;;;;7.03;100.00;98625.78;5044661;28;19924;-55
2023/02/01 09:09:27;;;;;;;;;;;;;;;6.93;100.00;98636.88;5031971;28;19925;-55
2023/02/01 09:11:52;;;;;;;;;;;;;;;7.05;100.00;98628.31;5029984;28;19927;-55
2023/02/01 09:14:18;;;;;;;;;;;;;;;7.22;100.00;98624.81;5031437;28;19925;-55
2023/02/01 09:16:43;;;;;;;;;;;;;;;7.22;100.00;98665.63;5061076;28;19963;-55
2023/02/01 09:19:09;;;;;;;;;;;;;;;7.20;100.00;98674.13;5029564;28;20466;-57
2023/02/01 09:21:35;;;;;;;;;;;;;;;7.32;100.00;98641.78;5028943;28;20364;-54
2023/02/01 09:24:00;;;;;;;;;;;;;;;7.35;100.00;98674.03;5029583;28;19920;-58
2023/02/01 09:26:26;;;;;;;;;;;;;;;7.44;100.00;98651.03;5028752;28;20369;-55
2023/02/01 09:28:51;;;;;;;;;;;;;;;7.41;100.00;98645.97;5031473;28;20339;-57
2023/02/01 09:31:17;;;;;;;;;;;;;;;7.38;100.00;98668.09;5036531;28;20260;-57
2023/02/01 09:33:43;;;;;;;;;;;;;;;7.24;100.00;98676.66;5030222;28;19920;-55
2023/02/01 09:36:09;;;;;;;;;;;;;;;7.31;100.00;98663.00;5029978;28;19944;-56
2023/02/01 09:38:34;;;;;;;;;;;;;;;7.31;100.00;98668.13;5031296;28;20028;-58
2023/02/01 09:41:00;;;;;;;;;;;;;;;7.34;100.00;98668.09;5031616;28;20289;-58
2023/02/01 09:43:26;;;;;;;;;;;;;;;7.37;100.00;98662.16;5034536;28;19925;-56
2023/02/01 09:46:10;;;;;;;;;;;;;;;7.35;100.00;98664.69;5032318;28;19920;-57
2023/02/01 09:48:39;;;;;;;;;;;;;;;7.29;100.00;98669.84;5038193;28;20413;-60
2023/02/01 09:51:06;;;;;;;;;;;;;;;7.27;100.00;98669.00;5032243;28;20044;-57
2023/02/01 09:53:32;;;;;;;;;;;;;;;7.14;100.00;98671.59;5034688;28;19924;-59
2023/02/01 09:56:20;;;;;;;;;;;;;;;6.95;100.00;98682.75;5034644;28;19974;-59
2023/02/01 09:58:56;;;;;;;;;;;;;;;6.77;100.00;98686.19;5031120;28;19920;-58
2023/02/01 10:01:23;;;;;;;;;;;;;;;6.57;100.00;98696.44;5045446;28;20019;-58
2023/02/01 10:03:49;;;;;;;;;;;;;;;6.11;100.00;98677.81;5029518;28;19917;-56
2023/02/01 10:06:21;;;;;;;;;;;;;;;5.88;100.00;98682.06;5028217;28;20000;-60
2023/02/01 10:09:03;;;;;;;;;;;;;;;5.68;100.00;98676.09;5029175;28;19925;-57
2023/02/01 10:11:28;;;;;;;;;;;;;;;5.58;100.00;98685.41;5029651;28;19966;-57
2023/02/01 10:13:53;;;;;;;;;;;;;;;5.56;100.00;98665.91;5028553;28;19925;-57
2023/02/01 10:16:32;;;;;;;;;;;;;;;5.58;100.00;98675.22;5031045;28;19928;-58
2023/02/01 10:19:18;;;;;;;;;;;;;;;5.62;100.00;98663.38;5034553;28;19921;-58
2023/02/01 10:21:51;;;;;;;;;;;;;;;5.66;100.00;98667.59;5034241;28;20145;-57
2023/02/01 10:24:22;;;;;;;;;;;;;;;5.79;100.00;98641.34;5039006;28;19920;-59
2023/02/01 10:26:57;;;;;;;;;;;;;;;5.88;100.00;98639.69;5035239;28;19921;-58
2023/02/01 10:29:28;;;;;;;;;;;;;;;5.98;100.00;98636.25;5036494;28;20402;-59
2023/02/01 10:31:54;;;;;;;;;;;;;;;6.12;100.00;98637.94;5035027;28;19960;-59
2023/02/01 10:34:22;;;;;;;;;;;;;;;6.22;100.00;98640.50;5035332;28;19991;-59
2023/02/01 10:36:59;;;;;;;;;;;;;;;6.39;100.00;98631.13;5036004;28;19964;-60
2023/02/01 10:39:25;;;;;;;;;;;;;;;6.57;100.00;98621.75;5036536;28;20311;-59
2023/02/01 10:41:51;;;;;;;;;;;;;;;6.88;100.00;98629.25;5035625;28;19921;-56
2023/02/01 10:44:19;;;;;;;;;;;;;;;7.09;100.00;98610.44;5068785;28;19936;-61
2023/02/01 10:46:45;;;;;;;;;;;;;;;7.04;100.00;98634.28;5036561;28;19920;-57
2023/02/01 10:49:17;;;;;;;;;;;;;;;7.00;100.00;98635.97;5031748;28;19975;-56
2023/02/01 10:51:47;;;;;;;;;;;;;;;7.02;100.00;98628.34;5034254;28;19921;-57
2023/02/01 10:54:20;;;;;;;;;;;;;;;7.04;100.00;98614.75;5032916;28;19917;-60
2023/02/01 10:56:46;;;;;;;;;;;;;;;7.04;100.00;98619.84;5026306;28;20207;-57
2023/02/01 10:59:19;;;;;;;;;;;;;;;7.09;100.00;98618.09;5030670;28;20367;-59
2023/02/01 11:01:46;;;;;;;;;;;;;;;7.01;100.00;98609.63;5019897;28;19921;-58
2023/02/01 11:04:16;;;;;;;;;;;;;;;6.92;100.00;98617.31;5018442;28;19951;-58
2023/02/01 11:06:43;;;;;;;;;;;;;;;6.84;100.00;98622.47;5022643;28;20303;-58
2023/02/01 11:09:09;;;;;;;;;;;;;;;6.87;100.00;98626.72;5020124;28;20380;-57
2023/02/01 11:11:47;;;;;;;;;;;;;;;6.97;100.00;98627.50;5023772;28;20023;-60
2023/02/01 11:14:15;;;;;;;;;;;;;;;6.78;100.00;98637.81;5023395;28;20391;-57
2023/02/01 11:16:46;;;;;;;;;;;;;;;6.69;100.00;98626.78;5021542;28;20240;-59
2023/02/01 11:19:14;;;;;;;;;;;;;;;6.75;100.00;98617.41;5022886;28;19932;-55
2023/02/01 11:21:41;;;;;;;;;;;;;;;6.71;100.00;98615.72;5029835;28;19920;-57
2023/02/01 11:24:17;;;;;;;;;;;;;;;6.67;100.00;98610.66;5030369;28;19920;-58
2023/02/01 11:26:43;;;;;;;;;;;;;;;6.83;100.00;98607.22;5033126;28;19925;-58
2023/02/01 11:29:14;;;;;;;;;;;;;;;6.82;100.00;98613.16;5027970;28;20291;-55
2023/02/01 11:31:41;;;;;;;;;;;;;;;6.86;100.00;98600.38;5029570;28;20359;-57
2023/02/01 11:34:07;;;;;;;;;;;;;;;6.86;100.00;98615.69;5030948;28;19974;-57
2023/02/01 11:36:33;;;;;;;;;;;;;;;6.85;100.00;98590.19;5030457;28;19925;-56
2023/02/01 11:39:10;;;;;;;;;;;;;;;6.66;100.00;98626.81;5032766;28;19925;-56
2023/02/01 11:41:56;;;;;;;;;;;;;;;6.58;100.00;98608.97;5031002;28;20024;-59
2023/02/01 11:44:26;;;;;;;;;;;;;;;6.59;100.00;98602.19;5027559;28;19921;-59
2023/02/01 11:46:51;;;;;;;;;;;;;;;6.43;100.00;98609.88;5030570;28;20380;-58
2023/02/01 11:49:20;;;;;;;;;;;;;;;6.38;100.00;98601.41;5031644;28;20028;-57
2023/02/01 11:52:03;;;;;;;;;;;;;;;6.16;100.00;98598.91;5029206;28;19921;-58
2023/02/01 11:54:50;;;;;;;;;;;;;;;6.13;100.00;98609.09;5031373;28;19947;-63
2023/02/01 11:57:19;;;;;;;;;;;;;;;6.03;100.00;98617.59;5030018;28;20351;-59
2023/02/01 11:59:53;;;;;;;;;;;;;;;5.87;100.00;98616.78;5028638;28;20015;-57
2023/02/01 12:02:27;;;;;;;;;;;;;;;5.76;100.00;98629.47;5030274;28;19971;-60
2023/02/01 12:05:08;;;;;;;;;;;;;;;5.68;100.00;98630.31;5031034;28;19921;-58
2023/02/01 12:07:34;;;;;;;;;;;;;;;5.50;100.00;98626.06;5030366;28;19979;-60
2023/02/01 12:10:04;;;;;;;;;;;;;;;5.30;100.00;98632.81;5030905;28;20027;-56
2023/02/01 12:12:46;;;;;;;;;;;;;;;5.24;100.00;98633.66;5029536;28;19921;-55
2023/02/01 12:15:17;;;;;;;;;;;;;;;5.35;100.00;98638.75;5030073;28;20355;-58
2023/02/01 12:18:02;;;;;;;;;;;;;;;5.41;100.00;98634.53;5031151;28;20270;-56
2023/02/01 12:20:46;;;;;;;;;;;;;;;5.64;100.00;98623.53;5062982;28;19980;-58
2023/02/01 12:23:26;;;;;;;;;;;;;;;5.75;100.00;98619.28;5028729;28;19921;-55
2023/02/01 12:26:01;;;;;;;;;;;;;;;5.88;100.00;98618.47;5030754;28;19917;-56
2023/02/01 12:28:36;;;;;;;;;;;;;;;5.91;100.00;98621.84;5032806;28;19928;-59
2023/02/01 12:31:04;;;;;;;;;;;;;;;5.89;100.00;98688.88;5030891;28;19921;-59
2023/02/01 12:33:31;;;;;;;;;;;;;;;5.96;100.00;98622.72;5031306;28;20306;-56
2023/02/01 12:36:09;;;;;;;;;;;;;;;5.95;100.00;98651.53;5032939;28;19920;-58
2023/02/01 12:38:42;;;;;;;;;;;;;;;6.01;100.00;98642.22;5030638;28;20394;-57
2023/02/01 12:41:14;;;;;;;;;;;;;;;5.87;100.00;98625.25;5029670;28;19932;-57
2023/02/01 12:43:47;;;;;;;;;;;;;;;5.77;100.00;98650.69;5029590;28;19927;-56
2023/02/01 12:46:26;;;;;;;;;;;;;;;5.73;100.00;98656.59;5028755;28;20368;-57
2023/02/01 12:48:57;;;;;;;;;;;;;;;5.65;100.00;98679.47;5028484;28;20400;-59
2023/02/01 12:51:26;;;;;;;;;;;;;;;5.62;100.00;98669.31;5028714;28;19921;-56
2023/02/01 12:54:00;;;;;;;;;;;;;;;5.70;100.00;98659.97;5030533;28;19920;-56